Time;durP1;ratioP1;P1;durP2;ratioP2;P2;SDS_P1;SDS_P2;PMS_P1;PMS_P2;Temp;Humidity;BMP_temperature;BMP_pressure;BME280_temperature;BME280_humidity;BME280_pressure;Samples;Min_cycle;Max_cycle;Signal;HPM_P1;HPM_P2
2023/07/31 00:00:48;;;;;;;5.82;2.03;;;;;;;;;;5044872;28;20115;-83
2023/07/31 00:03:14;;;;;;;6.82;1.85;;;;;;;;;;5061949;28;20051;-75
2023/07/31 00:05:40;;;;;;;4.30;1.90;;;;;;;;;;5055569;28;20048;-81
2023/07/31 00:08:06;;;;;;;3.58;1.85;;;15.00;99.90;;;;;;5059557;28;20048;-81
2023/07/31 00:10:33;;;;;;;9.25;2.30;;;15.10;99.90;;;;;;5043448;28;20114;-80
2023/07/31 00:12:59;;;;;;;5.47;2.00;;;;;;;;;;5040846;28;20187;-77
2023/07/31 00:15:25;;;;;;;5.35;2.38;;;15.30;99.90;;;;;;5058449;28;20461;-81
2023/07/31 00:17:51;;;;;;;6.95;2.65;;;14.90;99.90;;;;;;5059928;28;20045;-82
2023/07/31 00:20:19;;;;;;;7.10;3.47;;;15.00;99.90;;;;;;5042477;28;20055;-86
2023/07/31 00:22:45;;;;;;;4.30;2.20;;;;;;;;;;5039952;28;20060;-78
2023/07/31 00:25:11;;;;;;;6.93;2.65;;;15.20;99.90;;;;;;5053368;28;20185;-78
2023/07/31 00:27:37;;;;;;;5.90;2.90;;;;;;;;;;5059401;28;20540;-76
2023/07/31 00:30:03;;;;;;;6.57;2.90;;;15.10;99.90;;;;;;5049722;28;20040;-79
2023/07/31 00:32:29;;;;;;;5.05;2.83;;;14.60;99.90;;;;;;5058864;28;20060;-80
2023/07/31 00:34:55;;;;;;;6.28;2.83;;;;;;;;;;5050363;28;20045;-80
2023/07/31 00:37:21;;;;;;;5.18;2.63;;;15.00;99.90;;;;;;5051554;28;20052;-82
2023/07/31 00:39:46;;;;;;;5.50;2.60;;;14.90;99.90;;;;;;5058351;28;20053;-80
2023/07/31 00:42:12;;;;;;;7.35;2.60;;;;;;;;;;5061258;28;20045;-82
2023/07/31 00:44:39;;;;;;;5.47;2.58;;;;;;;;;;5060503;28;20044;-85
2023/07/31 00:47:05;;;;;;;7.80;3.17;;;15.00;99.90;;;;;;5060757;28;20516;-81
2023/07/31 00:49:31;;;;;;;6.38;2.38;;;14.50;99.90;;;;;;5060202;28;20049;-88
2023/07/31 00:51:57;;;;;;;6.07;3.15;;;;;;;;;;5060215;28;20394;-82
2023/07/31 00:54:23;;;;;;;4.32;2.42;;;14.80;99.90;;;;;;5043299;28;20044;-83
2023/07/31 00:56:52;;;;;;;6.50;2.33;;;14.20;99.90;;;;;;5054605;28;20541;-81
2023/07/31 00:59:18;;;;;;;7.45;3.65;;;15.00;99.90;;;;;;5059474;28;20117;-81
2023/07/31 01:01:45;;;;;;;5.03;3.13;;;14.90;99.90;;;;;;5055609;28;20550;-82
2023/07/31 01:04:12;;;;;;;7.40;3.17;;;14.70;99.90;;;;;;5039918;28;20414;-78
2023/07/31 01:07:16;;;;;;;6.10;2.90;;;14.90;99.90;;;;;;5042386;28;20049;-83
2023/07/31 01:09:52;;;;;;;7.85;3.40;;;14.80;99.90;;;;;;5053564;28;20044;-83
2023/07/31 01:12:20;;;;;;;7.70;3.17;;;14.70;99.90;;;;;;5054268;28;20106;-82
2023/07/31 01:15:06;;;;;;;11.13;2.97;;;14.70;99.90;;;;;;5058081;28;20102;-81
2023/07/31 01:17:32;;;;;;;7.53;3.00;;;;;;;;;;5041919;28;20055;-80
2023/07/31 01:20:02;;;;;;;4.43;3.35;;;14.60;99.90;;;;;;5059240;28;20776;-83
2023/07/31 01:22:47;;;;;;;5.30;2.63;;;14.70;99.90;;;;;;5054854;28;20053;-80
2023/07/31 01:25:32;;;;;;;7.80;2.55;;;14.60;99.90;;;;;;5058285;28;20559;-81
2023/07/31 01:28:03;;;;;;;5.22;2.72;;;14.40;99.90;;;;;;5051094;28;20429;-82
2023/07/31 01:30:35;;;;;;;7.55;2.50;;;14.70;99.90;;;;;;5054566;28;20105;-81
2023/07/31 01:33:06;;;;;;;4.63;2.70;;;14.50;99.90;;;;;;5050985;28;20099;-80
2023/07/31 01:35:36;;;;;;;7.68;2.65;;;14.70;99.90;;;;;;5041421;28;20862;-80
2023/07/31 01:38:02;;;;;;;4.10;1.80;;;14.60;99.90;;;;;;5060058;28;20604;-79
2023/07/31 01:40:28;;;;;;;3.20;1.85;;;14.60;99.90;;;;;;5058252;28;20444;-79
2023/07/31 01:42:54;;;;;;;5.32;2.13;;;;;;;;;;5061485;28;20082;-78
2023/07/31 01:45:20;;;;;;;3.60;1.58;;;14.60;99.90;;;;;;5062143;28;20354;-77
2023/07/31 01:47:46;;;;;;;2.65;1.15;;;14.40;99.90;;;;;;5062714;28;20139;-83
2023/07/31 01:50:12;;;;;;;2.80;1.38;;;14.60;99.90;;;;;;5062484;28;20047;-81
2023/07/31 01:52:37;;;;;;;5.55;1.23;;;14.60;99.90;;;;;;5062162;28;20055;-83
2023/07/31 01:55:03;;;;;;;8.32;2.03;;;14.60;99.90;;;;;;5061973;28;20465;-81
2023/07/31 01:57:29;;;;;;;8.02;1.23;;;14.80;99.90;;;;;;5062096;28;20059;-80
2023/07/31 01:59:55;;;;;;;5.35;1.10;;;14.50;99.90;;;;;;5048441;28;20048;-79
2023/07/31 02:02:23;;;;;;;2.60;1.00;;;14.60;99.90;;;;;;5065364;28;20385;-79
2023/07/31 02:04:49;;;;;;;1.23;0.40;;;14.50;99.90;;;;;;5044141;28;20060;-80
2023/07/31 02:07:15;;;;;;;4.68;0.73;;;14.60;99.90;;;;;;5065319;28;20126;-80
2023/07/31 02:09:40;;;;;;;1.15;0.50;;;14.60;99.90;;;;;;5065134;28;20131;-79
2023/07/31 02:12:08;;;;;;;3.63;0.68;;;14.60;99.90;;;;;;5064851;28;20052;-82
2023/07/31 02:14:34;;;;;;;1.73;0.77;;;14.60;99.90;;;;;;5065563;28;20048;-79
2023/07/31 02:17:00;;;;;;;3.13;0.30;;;14.60;99.90;;;;;;5065190;28;20502;-80
2023/07/31 02:19:26;;;;;;;0.95;0.20;;;;;;;;;;5065473;28;20823;-79
2023/07/31 02:21:52;;;;;;;3.67;0.43;;;14.60;99.90;;;;;;5065846;28;20073;-78
2023/07/31 02:24:17;;;;;;;1.50;0.47;;;14.60;99.90;;;;;;5065447;28;20048;-77
2023/07/31 02:26:43;;;;;;;1.15;0.25;;;14.60;99.90;;;;;;5049739;28;20134;-76
2023/07/31 02:29:09;;;;;;;2.10;0.30;;;14.60;99.90;;;;;;5049837;28;20066;-81
2023/07/31 02:31:35;;;;;;;2.22;0.30;;;14.60;99.90;;;;;;5049524;28;20051;-77
2023/07/31 02:34:00;;;;;;;2.15;0.22;;;14.50;99.90;;;;;;5060027;28;20077;-79
2023/07/31 02:36:26;;;;;;;0.60;0.30;;;17.60;99.90;;;;;;5049579;28;20113;-77
2023/07/31 02:38:52;;;;;;;1.50;0.35;;;14.40;99.90;;;;;;5065799;28;20063;-79
2023/07/31 02:41:18;;;;;;;3.45;0.55;;;14.50;99.90;;;;;;5048421;28;20059;-78
2023/07/31 02:43:43;;;;;;;1.40;0.30;;;14.60;99.90;;;;;;5048399;28;20054;-79
2023/07/31 02:46:09;;;;;;;1.63;0.63;;;14.50;99.90;;;;;;5047998;28;20048;-78
2023/07/31 02:48:35;;;;;;;1.13;0.47;;;14.90;99.90;;;;;;5047957;28;20047;-79
2023/07/31 02:51:01;;;;;;;1.00;0.30;;;14.40;99.90;;;;;;5064411;28;20645;-80
2023/07/31 02:53:27;;;;;;;1.45;0.50;;;14.50;99.90;;;;;;5065092;28;20812;-81
2023/07/31 02:55:52;;;;;;;2.45;0.50;;;14.40;99.90;;;;;;5063739;28;20055;-80
2023/07/31 02:58:18;;;;;;;2.90;0.57;;;14.50;99.90;;;;;;5042559;28;20537;-79
2023/07/31 03:00:44;;;;;;;2.97;1.15;;;14.50;99.90;;;;;;5042704;28;20048;-81
2023/07/31 03:03:10;;;;;;;2.17;0.47;;;14.50;99.90;;;;;;5058827;28;20122;-81
2023/07/31 03:05:36;;;;;;;1.85;0.30;;;14.50;99.90;;;;;;5078047;28;20044;-83
2023/07/31 03:08:02;;;;;;;0.95;0.30;;;11.30;99.90;;;;;;5044204;28;20090;-80
2023/07/31 03:10:27;;;;;;;1.80;0.38;;;14.60;99.90;;;;;;5057504;28;20122;-80
2023/07/31 03:12:53;;;;;;;1.13;0.30;;;14.50;99.90;;;;;;5061659;28;20063;-80
2023/07/31 03:15:19;;;;;;;1.60;0.32;;;14.60;99.90;;;;;;5064375;28;20090;-80
2023/07/31 03:17:44;;;;;;;2.38;0.50;;;14.60;99.90;;;;;;5063432;28;20623;-80
2023/07/31 03:20:11;;;;;;;3.90;0.40;;;14.60;99.90;;;;;;5063910;28;20048;-79
2023/07/31 03:22:37;;;;;;;1.73;0.50;;;14.60;99.90;;;;;;5046839;28;20056;-79
2023/07/31 03:25:04;;;;;;;2.42;0.60;;;14.60;99.90;;;;;;5063894;28;20051;-79
2023/07/31 03:27:29;;;;;;;2.08;0.63;;;14.70;99.90;;;;;;5056008;28;20056;-82
2023/07/31 03:29:55;;;;;;;5.57;0.50;;;14.60;99.90;;;;;;5058295;28;20051;-78
2023/07/31 03:32:21;;;;;;;2.20;0.50;;;14.70;99.90;;;;;;5062033;28;20056;-78
2023/07/31 03:34:47;;;;;;;3.17;0.73;;;14.70;99.90;;;;;;5062301;28;20127;-81
2023/07/31 03:37:13;;;;;;;1.65;0.52;;;14.70;99.90;;;;;;5062562;28;20047;-79
2023/07/31 03:39:38;;;;;;;1.35;0.45;;;14.60;99.90;;;;;;5006641;28;1127083;-79
2023/07/31 03:42:04;;;;;;;3.03;0.80;;;14.90;99.90;;;;;;5063812;28;20114;-78
2023/07/31 03:44:30;;;;;;;1.67;0.60;;;14.90;99.90;;;;;;5063436;28;20728;-79
2023/07/31 03:46:56;;;;;;;4.72;1.02;;;;;;;;;;5046384;28;20071;-79
2023/07/31 03:49:22;;;;;;;3.63;0.93;;;;;;;;;;5047011;28;20094;-77
2023/07/31 03:51:48;;;;;;;4.07;1.23;;;14.80;99.90;;;;;;5063690;28;20091;-78
2023/07/31 03:54:14;;;;;;;3.05;1.08;;;14.80;99.90;;;;;;5046745;28;20497;-79
2023/07/31 03:56:40;;;;;;;2.72;0.88;;;14.80;99.90;;;;;;5063991;28;20044;-79
2023/07/31 03:59:05;;;;;;;1.30;0.75;;;15.50;99.90;;;;;;5064653;28;20067;-80
2023/07/31 04:01:31;;;;;;;3.25;0.60;;;14.90;99.90;;;;;;5061696;28;20052;-78
2023/07/31 04:03:57;;;;;;;1.80;0.93;;;14.90;99.90;;;;;;5065414;28;20040;-81
2023/07/31 04:06:22;;;;;;;3.05;0.80;;;14.90;99.90;;;;;;5060724;28;20971;-80
2023/07/31 04:08:48;;;;;;;2.45;0.70;;;14.90;99.90;;;;;;5063608;28;20079;-80
2023/07/31 04:11:14;;;;;;;4.97;0.90;;;15.00;99.90;;;;;;5062672;28;20044;-80
2023/07/31 04:13:40;;;;;;;2.78;1.00;;;15.00;99.90;;;;;;5061982;28;20313;-78
2023/07/31 04:16:06;;;;;;;2.63;0.80;;;14.90;99.90;;;;;;5062355;28;20970;-81
2023/07/31 04:18:32;;;;;;;3.03;1.40;;;15.10;99.90;;;;;;5062667;28;20108;-81
2023/07/31 04:20:58;;;;;;;1.80;0.50;;;15.00;99.90;;;;;;5062593;28;20105;-79
2023/07/31 04:23:27;;;;;;;2.00;0.40;;;15.00;99.90;;;;;;5046521;28;20048;-83
2023/07/31 04:25:53;;;;;;;2.22;0.50;;;15.00;99.90;;;;;;5057653;28;20047;-81
2023/07/31 04:28:18;;;;;;;2.08;0.43;;;15.10;99.90;;;;;;5063470;28;20040;-80
2023/07/31 04:30:44;;;;;;;3.90;0.32;;;15.10;99.90;;;;;;5062744;28;20044;-80
2023/07/31 04:33:10;;;;;;;25.88;2.47;;;15.10;99.90;;;;;;5046323;28;20048;-84
2023/07/31 04:35:36;;;;;;;1.55;0.30;;;15.10;99.90;;;;;;5062674;28;20135;-83
2023/07/31 04:38:01;;;;;;;2.53;0.30;;;15.10;99.90;;;;;;5062160;28;20047;-79
2023/07/31 04:40:27;;;;;;;2.15;0.50;;;15.10;99.90;;;;;;5061442;28;20506;-81
2023/07/31 04:42:53;;;;;;;4.57;0.50;;;15.10;99.90;;;;;;5062591;28;20152;-77
2023/07/31 04:45:19;;;;;;;1.40;0.47;;;15.10;99.90;;;;;;5063659;28;20700;-81
2023/07/31 04:47:44;;;;;;;6.28;0.77;;;15.10;99.90;;;;;;5063411;28;20531;-80
2023/07/31 04:50:10;;;;;;;4.10;0.40;;;15.10;99.90;;;;;;5063818;28;20135;-79
2023/07/31 04:52:36;;;;;;;2.17;0.57;;;15.10;99.90;;;;;;5062344;28;20045;-82
2023/07/31 04:55:02;;;;;;;3.97;0.40;;;15.10;99.90;;;;;;5063328;28;20127;-78
2023/07/31 04:57:28;;;;;;;1.50;0.45;;;15.10;99.90;;;;;;5064140;28;20055;-77
2023/07/31 04:59:54;;;;;;;4.75;0.63;;;15.10;99.90;;;;;;5062570;28;20075;-80
2023/07/31 05:02:20;;;;;;;3.28;0.70;;;15.20;99.90;;;;;;5062457;28;20164;-80
2023/07/31 05:04:45;;;;;;;2.13;0.40;;;15.20;99.90;;;;;;5045583;28;20143;-79
2023/07/31 05:07:11;;;;;;;1.90;0.70;;;15.40;99.90;;;;;;5062251;28;20559;-78
2023/07/31 05:09:39;;;;;;;1.90;0.40;;;15.20;99.90;;;;;;5062089;28;20050;-81
2023/07/31 05:12:05;;;;;;;0.88;0.30;;;15.20;99.90;;;;;;5059130;28;20056;-78
2023/07/31 05:14:31;;;;;;;2.17;0.28;;;15.20;99.90;;;;;;5060235;28;20056;-77
2023/07/31 05:16:57;;;;;;;3.25;0.60;;;15.20;99.90;;;;;;5060542;28;20445;-78
2023/07/31 05:19:23;;;;;;;3.20;0.40;;;15.30;99.90;;;;;;5059360;28;20040;-77
2023/07/31 05:21:48;;;;;;;2.42;0.77;;;15.30;99.90;;;;;;5040604;28;20052;-78
2023/07/31 05:24:14;;;;;;;2.70;0.50;;;15.30;99.90;;;;;;5062127;28;20048;-79
2023/07/31 05:26:40;;;;;;;2.10;0.45;;;15.30;99.90;;;;;;5045457;28;20056;-79
2023/07/31 05:29:05;;;;;;;1.33;0.35;;;13.20;99.90;;;;;;5061268;28;20079;-78
2023/07/31 05:31:32;;;;;;;1.80;0.50;;;15.30;99.90;;;;;;5061337;28;20080;-77
2023/07/31 05:33:58;;;;;;;4.22;0.77;;;15.30;99.90;;;;;;5044554;28;20082;-79
2023/07/31 05:36:24;;;;;;;2.55;0.47;;;14.80;99.90;;;;;;5066122;28;20056;-79
2023/07/31 05:38:49;;;;;;;2.58;0.63;;;12.20;99.90;;;;;;5048913;28;20055;-78
2023/07/31 05:41:16;;;;;;;4.13;0.85;;;15.30;99.90;;;;;;5048668;28;20056;-78
2023/07/31 05:43:43;;;;;;;3.55;1.00;;;;;;;;;;5063206;28;20052;-79
2023/07/31 05:46:09;;;;;;;9.60;1.88;;;15.30;99.90;;;;;;5064136;28;20052;-78
2023/07/31 05:48:35;;;;;;;6.50;2.47;;;15.40;99.90;;;;;;5046445;28;20052;-79
2023/07/31 05:51:01;;;;;;;12.80;2.95;;;15.40;99.90;;;;;;5064755;28;20086;-79
2023/07/31 05:53:26;;;;;;;10.75;3.15;;;15.50;99.90;;;;;;5064975;28;20083;-77
2023/07/31 05:55:52;;;;;;;13.07;3.67;;;15.50;99.90;;;;;;5063959;28;20044;-77
2023/07/31 05:58:18;;;;;;;14.07;4.47;;;15.50;99.90;;;;;;5062990;28;20307;-78
2023/07/31 06:00:43;;;;;;;20.75;5.05;;;15.30;99.90;;;;;;5064098;28;20044;-79
2023/07/31 06:03:09;;;;;;;14.50;5.13;;;15.50;99.90;;;;;;5064187;28;20079;-80
2023/07/31 06:05:35;;;;;;;18.58;5.43;;;15.70;99.90;;;;;;5065068;28;20075;-82
2023/07/31 06:08:01;;;;;;;16.73;5.95;;;15.70;99.90;;;;;;5065293;28;20156;-83
2023/07/31 06:10:28;;;;;;;20.08;5.90;;;15.90;99.90;;;;;;5064939;28;20048;-82
2023/07/31 06:12:54;;;;;;;25.10;6.88;;;16.00;99.90;;;;;;5046243;28;20082;-84
2023/07/31 06:15:20;;;;;;;27.02;6.28;;;15.80;99.90;;;;;;5044944;28;20134;-80
2023/07/31 06:17:46;;;;;;;24.15;8.32;;;15.80;99.90;;;;;;5049881;28;20044;-84
2023/07/31 06:20:12;;;;;;;24.08;7.00;;;15.90;99.90;;;;;;5064669;28;20048;-82
2023/07/31 06:22:38;;;;;;;16.85;6.07;;;16.70;99.90;;;;;;5044909;28;20128;-84
2023/07/31 06:25:04;;;;;;;20.42;6.15;;;16.00;99.90;;;;;;5065399;28;20135;-83
2023/07/31 06:27:30;;;;;;;24.70;6.95;;;16.10;99.90;;;;;;5049304;28;20059;-84
2023/07/31 06:29:55;;;;;;;28.42;6.68;;;16.20;99.90;;;;;;5066034;28;20043;-82
2023/07/31 06:32:21;;;;;;;25.85;7.22;;;16.20;99.90;;;;;;5064646;28;20156;-80
2023/07/31 06:34:47;;;;;;;29.42;7.60;;;16.30;99.90;;;;;;5064095;28;20471;-81
2023/07/31 06:37:13;;;;;;;26.55;7.10;;;16.20;99.90;;;;;;5065090;28;20101;-82
2023/07/31 06:39:39;;;;;;;18.75;6.47;;;16.40;99.90;;;;;;5064538;28;20064;-82
2023/07/31 06:42:05;;;;;;;24.20;6.18;;;;;;;;;;5047356;28;20512;-85
2023/07/31 06:44:31;;;;;;;22.30;6.80;;;16.50;99.90;;;;;;5045864;28;20066;-81
2023/07/31 06:46:56;;;;;;;28.52;6.70;;;16.40;99.90;;;;;;5063424;28;20368;-81
2023/07/31 06:49:22;;;;;;;21.38;5.63;;;16.40;99.90;;;;;;5049263;28;20117;-82
2023/07/31 06:51:49;;;;;;;23.83;6.22;;;16.50;99.90;;;;;;5065845;28;20052;-79
2023/07/31 06:54:14;;;;;;;23.98;6.75;;;16.60;99.90;;;;;;5048024;28;20064;-80
2023/07/31 06:56:40;;;;;;;21.23;7.13;;;16.60;99.90;;;;;;5064933;28;20059;-82
2023/07/31 06:59:06;;;;;;;20.27;5.53;;;16.90;99.90;;;;;;5048389;28;20148;-79
2023/07/31 07:01:32;;;;;;;17.63;6.38;;;;;;;;;;5064679;28;20083;-86
2023/07/31 07:03:58;;;;;;;23.65;6.50;;;17.10;99.90;;;;;;5064567;28;20066;-81
2023/07/31 07:06:24;;;;;;;19.45;7.05;;;17.10;99.90;;;;;;5047459;28;20040;-78
2023/07/31 07:08:50;;;;;;;20.20;7.03;;;17.10;99.90;;;;;;5045778;28;20059;-79
2023/07/31 07:11:16;;;;;;;32.80;8.23;;;17.10;99.90;;;;;;5060437;28;20489;-81
2023/07/31 07:13:41;;;;;;;25.13;8.57;;;17.20;99.90;;;;;;5059262;28;20055;-85
2023/07/31 07:16:07;;;;;;;20.75;7.20;;;17.20;99.90;;;;;;5063374;28;20079;-84
2023/07/31 07:18:34;;;;;;;23.20;6.90;;;;;;;;;;5050835;28;20131;-79
2023/07/31 07:21:02;;;;;;;37.45;7.75;;;17.10;99.90;;;;;;5044564;28;20089;-80
2023/07/31 07:23:27;;;;;;;27.38;8.73;;;17.10;99.90;;;;;;5044733;28;20524;-81
2023/07/31 07:25:53;;;;;;;27.45;7.88;;;;;;;;;;5063438;28;20044;-82
2023/07/31 07:28:19;;;;;;;31.02;8.40;;;17.00;99.90;;;;;;5065188;28;20125;-81
2023/07/31 07:30:50;;;;;;;17.08;6.47;;;16.80;99.90;;;;;;5047716;28;20052;-82
2023/07/31 07:33:16;;;;;;;24.42;6.72;;;17.00;99.90;;;;;;5063422;28;20052;-82
2023/07/31 07:35:41;;;;;;;20.83;7.15;;;17.00;99.90;;;;;;5046129;28;20054;-81
2023/07/31 07:38:07;;;;;;;17.98;6.50;;;17.00;99.90;;;;;;5063572;28;20080;-79
2023/07/31 07:40:39;;;;;;;17.23;6.13;;;16.90;99.90;;;;;;5055724;28;20102;-84
2023/07/31 07:43:04;;;;;;;13.50;5.72;;;17.00;99.90;;;;;;5064278;28;20048;-80
2023/07/31 07:45:30;;;;;;;17.20;6.00;;;17.10;99.90;;;;;;5063826;28;20493;-82
2023/07/31 07:47:56;;;;;;;18.48;6.32;;;17.10;99.90;;;;;;5048152;28;20582;-84
2023/07/31 07:50:22;;;;;;;18.00;6.03;;;17.20;99.90;;;;;;5064476;28;20127;-85
2023/07/31 07:52:48;;;;;;;15.35;5.68;;;17.30;99.90;;;;;;5047091;28;20397;-79
2023/07/31 07:55:13;;;;;;;12.82;4.57;;;20.40;99.90;;;;;;5064470;28;20048;-79
2023/07/31 07:57:39;;;;;;;13.52;4.95;;;17.10;99.90;;;;;;5045845;28;20047;-80
2023/07/31 08:00:06;;;;;;;10.48;4.22;;;17.20;99.90;;;;;;5059962;28;20143;-80
2023/07/31 08:02:31;;;;;;;10.32;4.97;;;17.10;99.90;;;;;;5062891;28;20044;-80
2023/07/31 08:04:57;;;;;;;10.38;3.90;;;17.10;99.90;;;;;;5045260;28;20059;-81
2023/07/31 08:07:23;;;;;;;9.32;3.70;;;17.00;99.90;;;;;;5061771;28;20047;-80
2023/07/31 08:09:49;;;;;;;10.82;3.25;;;17.00;99.90;;;;;;5064435;28;21018;-83
2023/07/31 08:12:14;;;;;;;9.60;3.70;;;17.00;99.90;;;;;;5062657;28;20390;-84
2023/07/31 08:14:40;;;;;;;7.15;3.03;;;17.00;99.90;;;;;;5041092;28;20295;-82
2023/07/31 08:17:06;;;;;;;11.52;4.70;;;17.10;99.90;;;;;;5064144;28;20047;-84
2023/07/31 08:19:32;;;;;;;7.55;2.97;;;17.00;99.90;;;;;;5063849;28;20525;-80
2023/07/31 08:21:57;;;;;;;7.93;2.58;;;17.00;99.90;;;;;;5062993;28;20062;-80
2023/07/31 08:24:23;;;;;;;6.63;2.53;;;17.00;99.90;;;;;;5057509;28;20455;-78
2023/07/31 08:26:49;;;;;;;13.02;3.97;;;17.10;99.90;;;;;;5061651;28;20756;-81
2023/07/31 08:29:15;;;;;;;5.00;2.53;;;17.20;99.90;;;;;;5061810;28;20068;-84
2023/07/31 08:31:40;;;;;;;6.63;2.67;;;17.20;99.90;;;;;;5062825;28;20044;-86
2023/07/31 08:34:06;;;;;;;5.93;2.45;;;17.40;99.90;;;;;;5060712;28;20048;-81
2023/07/31 08:36:32;;;;;;;5.82;2.55;;;17.40;99.90;;;;;;5061306;28;20055;-83
2023/07/31 08:38:57;;;;;;;5.50;2.08;;;17.60;99.90;;;;;;5045749;28;20052;-83
2023/07/31 08:41:24;;;;;;;6.00;1.98;;;17.60;99.90;;;;;;5062945;28;20043;-81
2023/07/31 08:43:50;;;;;;;6.32;2.97;;;17.70;99.90;;;;;;5061616;28;20052;-82
2023/07/31 08:46:20;;;;;;;3.90;1.58;;;17.70;99.90;;;;;;5057834;28;20509;-83
2023/07/31 08:48:47;;;;;;;5.10;1.80;;;18.00;99.90;;;;;;5059124;28;20122;-83
2023/07/31 08:51:14;;;;;;;9.13;2.00;;;17.90;99.90;;;;;;5069159;28;20044;-87
2023/07/31 08:53:40;;;;;;;3.00;1.42;;;18.10;99.90;;;;;;5062983;28;20131;-85
2023/07/31 08:56:06;;;;;;;7.30;1.88;;;18.10;99.90;;;;;;5062689;28;20568;-84
2023/07/31 08:58:34;;;;;;;3.15;1.45;;;17.90;99.90;;;;;;5053920;28;20050;-86
2023/07/31 09:01:03;;;;;;;5.28;1.73;;;18.40;99.90;;;;;;5044525;28;20249;-86
2023/07/31 09:03:33;;;;;;;3.38;1.73;;;18.40;99.90;;;;;;5056392;28;20135;-84
2023/07/31 09:05:59;;;;;;;2.88;1.10;;;18.40;99.90;;;;;;5061480;28;20044;-83
2023/07/31 09:08:30;;;;;;;2.47;1.20;;;18.50;99.90;;;;;;5044029;28;20110;-86
2023/07/31 09:11:00;;;;;;;4.05;1.30;;;18.80;99.90;;;;;;5045405;28;20046;-80
2023/07/31 09:13:28;;;;;;;2.80;0.88;;;18.80;99.90;;;;;;5052882;28;20392;-75
2023/07/31 09:15:54;;;;;;;2.42;0.95;;;18.90;99.90;;;;;;5039196;28;20054;-79
2023/07/31 09:18:22;;;;;;;4.00;1.10;;;19.20;99.90;;;;;;5061965;28;20047;-79
2023/07/31 09:21:07;;;;;;;1.92;0.93;;;19.10;99.90;;;;;;5061759;28;20109;-82
2023/07/31 09:23:44;;;;;;;2.45;0.90;;;19.50;99.90;;;;;;5062861;28;20048;-81
2023/07/31 09:26:10;;;;;;;2.65;1.38;;;19.60;99.90;;;;;;5058926;28;20052;-86
2023/07/31 09:28:36;;;;;;;2.90;0.70;;;19.80;99.90;;;;;;5060376;28;20446;-78
2023/07/31 09:31:02;;;;;;;2.03;0.60;;;19.70;99.90;;;;;;5058152;28;20048;-83
2023/07/31 09:33:28;;;;;;;1.52;0.40;;;19.80;99.90;;;;;;5043585;28;20055;-86
2023/07/31 09:35:54;;;;;;;1.27;0.43;;;19.80;99.90;;;;;;5059609;28;20063;-80
2023/07/31 09:38:20;;;;;;;1.70;0.52;;;19.70;99.90;;;;;;5060726;28;20044;-84
2023/07/31 09:40:48;;;;;;;1.50;0.65;;;19.90;99.90;;;;;;5061139;28;20081;-80
2023/07/31 09:43:19;;;;;;;1.58;0.60;;;19.90;99.90;;;;;;5061710;28;20390;-89
2023/07/31 09:45:45;;;;;;;2.05;0.40;;;19.70;99.90;;;;;;5061608;28;20117;-82
2023/07/31 09:48:16;;;;;;;1.38;0.22;;;19.60;99.90;;;;;;5044692;28;20063;-81
2023/07/31 09:50:44;;;;;;;0.60;0.30;;;19.70;99.90;;;;;;5043405;28;20098;-80
2023/07/31 09:53:10;;;;;;;0.60;0.22;;;19.60;99.90;;;;;;5058942;28;20055;-83
2023/07/31 09:55:37;;;;;;;0.98;0.20;;;19.60;99.90;;;;;;5044084;28;20072;-84
2023/07/31 09:58:07;;;;;;;0.95;0.25;;;19.60;99.90;;;;;;5056666;28;20472;-79
2023/07/31 10:00:34;;;;;;;1.17;0.20;;;19.60;99.90;;;;;;5059287;28;20037;-80
2023/07/31 10:03:10;;;;;;;2.20;0.20;;;19.70;99.90;;;;;;5062208;28;20055;-83
2023/07/31 10:05:40;;;;;;;0.95;0.20;;;19.70;99.90;;;;;;5047492;28;20048;-81
2023/07/31 10:08:08;;;;;;;1.50;0.20;;;19.70;99.90;;;;;;5062929;28;20079;-82
2023/07/31 10:10:36;;;;;;;3.00;1.00;;;19.60;99.90;;;;;;5064269;28;20050;-80
2023/07/31 10:13:03;;;;;;;0.75;0.13;;;19.60;99.90;;;;;;5053279;28;20519;-79
2023/07/31 10:15:30;;;;;;;0.82;0.10;;;19.50;99.90;;;;;;5062604;28;20401;-81
2023/07/31 10:17:57;;;;;;;0.85;0.20;;;19.60;99.90;;;;;;5045395;28;20135;-83
2023/07/31 10:20:23;;;;;;;1.25;0.20;;;19.70;99.90;;;;;;5062664;28;20748;-86
2023/07/31 10:22:49;;;;;;;1.30;0.25;;;19.80;99.90;;;;;;5048469;28;20973;-82
2023/07/31 10:25:19;;;;;;;4.97;0.30;;;19.90;99.90;;;;;;5064890;28;20052;-83
2023/07/31 10:27:47;;;;;;;1.38;0.20;;;19.90;99.90;;;;;;5065164;28;20051;-86
2023/07/31 10:30:16;;;;;;;3.80;0.30;;;20.10;99.90;;;;;;5065559;28;20087;-81
2023/07/31 10:32:44;;;;;;;3.65;0.30;;;20.30;99.90;;;;;;5065777;28;20040;-84
2023/07/31 10:35:11;;;;;;;0.75;0.28;;;20.30;99.90;;;;;;5063913;28;20044;-83
2023/07/31 10:37:44;;;;;;;2.33;0.30;;;20.50;99.90;;;;;;5063989;28;20056;-84
2023/07/31 10:40:17;;;;;;;0.85;0.20;;;20.60;99.90;;;;;;5064661;28;20470;-84
2023/07/31 10:42:52;;;;;;;2.92;0.20;;;20.60;99.90;;;;;;5064658;28;20059;-84
2023/07/31 10:45:32;;;;;;;2.13;0.20;;;21.00;99.90;;;;;;5064855;28;20047;-84
2023/07/31 10:48:12;;;;;;;0.75;0.10;;;21.10;99.90;;;;;;5059418;28;20080;-82
2023/07/31 10:50:46;;;;;;;0.45;0.10;;;21.40;99.90;;;;;;5046753;28;20124;-85
2023/07/31 10:53:23;;;;;;;0.40;0.10;;;21.50;99.90;;;;;;5064218;28;20063;-88
2023/07/31 10:55:52;;;;;;;0.80;0.22;;;22.20;99.90;;;;;;5047599;28;20112;-85
2023/07/31 10:58:20;;;;;;;0.45;0.20;;;21.60;99.90;;;;;;5064000;28;20596;-85
2023/07/31 11:00:46;;;;;;;1.80;0.17;;;21.80;99.90;;;;;;5047391;28;20048;-84
2023/07/31 11:03:18;;;;;;;0.52;0.10;;;21.80;99.90;;;;;;5063415;28;20108;-85
2023/07/31 11:05:53;;;;;;;0.47;0.10;;;21.70;99.90;;;;;;5063028;28;20756;-84
2023/07/31 11:08:30;;;;;;;0.57;0.20;;;21.40;99.90;;;;;;5063694;28;20127;-81
2023/07/31 11:11:02;;;;;;;0.63;0.30;;;21.20;99.90;;;;;;5063077;28;20055;-81
2023/07/31 11:13:28;;;;;;;1.60;0.20;;;20.90;99.90;;;;;;5048112;28;20062;-87
2023/07/31 11:15:54;;;;;;;1.58;0.20;;;20.80;99.90;;;;;;5048492;28;20524;-85
2023/07/31 11:18:20;;;;;;;0.52;0.20;;;20.70;99.90;;;;;;5047567;28;20048;-84
2023/07/31 11:20:46;;;;;;;2.58;0.10;;;20.70;99.90;;;;;;5064204;28;20059;-84
2023/07/31 11:23:15;;;;;;;0.32;0.17;;;20.60;99.90;;;;;;5047394;28;20051;-89
2023/07/31 11:25:41;;;;;;;1.33;0.20;;;20.70;99.90;;;;;;5065581;28;20052;-81
2023/07/31 11:28:12;;;;;;;0.30;0.10;;;20.70;99.90;;;;;;5048653;28;20054;-85
2023/07/31 11:30:42;;;;;;;0.25;0.10;;;20.80;99.90;;;;;;5048487;28;20055;-86
2023/07/31 11:33:10;;;;;;;0.73;0.10;;;20.90;99.90;;;;;;5064682;28;20458;-87
2023/07/31 11:35:44;;;;;;;0.60;0.10;;;21.10;99.90;;;;;;5063752;28;20058;-86
2023/07/31 11:38:27;;;;;;;1.50;0.10;;;21.30;99.90;;;;;;5063513;28;20101;-84
2023/07/31 11:41:04;;;;;;;1.13;0.00;;;21.30;99.90;;;;;;5058296;28;20497;-81
2023/07/31 11:43:31;;;;;;;0.10;0.00;;;21.30;99.90;;;;;;5059945;28;20053;-83
2023/07/31 11:46:06;;;;;;;0.40;0.00;;;21.20;99.90;;;;;;5032939;28;20051;-81
2023/07/31 11:48:37;;;;;;;0.82;0.10;;;21.30;99.90;;;;;;5040356;28;20047;-89
2023/07/31 11:51:05;;;;;;;1.60;0.10;;;21.10;99.90;;;;;;5035723;28;20095;-84
2023/07/31 11:53:59;;;;;;;0.90;0.15;;;20.80;99.90;;;;;;5059156;28;20057;-81
2023/07/31 11:56:26;;;;;;;1.67;0.13;;;20.20;99.90;;;;;;5055106;28;20168;-85
2023/07/31 11:58:56;;;;;;;3.25;0.10;;;20.00;99.90;;;;;;5060054;28;20048;-82
2023/07/31 12:01:23;;;;;;;1.58;0.10;;;19.60;99.90;;;;;;5053360;28;20076;-78
2023/07/31 12:03:50;;;;;;;1.02;0.10;;;22.30;99.90;;;;;;5060596;28;20052;-80
2023/07/31 12:06:16;;;;;;;0.57;0.00;;;18.90;99.90;;;;;;5041581;28;20056;-83
2023/07/31 12:08:42;;;;;;;0.52;0.10;;;18.70;99.90;;;;;;5059855;28;20524;-80
2023/07/31 12:11:13;;;;;;;0.65;0.10;;;18.80;99.90;;;;;;5042116;28;20048;-80
2023/07/31 12:13:39;;;;;;;0.30;0.10;;;18.70;99.90;;;;;;5059844;28;20113;-80
2023/07/31 12:16:05;;;;;;;1.60;0.03;;;18.70;99.90;;;;;;5050745;28;20050;-79
2023/07/31 12:18:37;;;;;;;0.38;0.10;;;18.70;99.90;;;;;;5041956;28;20136;-84
2023/07/31 12:21:06;;;;;;;0.95;0.10;;;18.60;99.90;;;;;;5052989;28;20048;-83
2023/07/31 12:23:34;;;;;;;1.67;0.10;;;19.10;99.90;;;;;;5041957;28;20524;-82
2023/07/31 12:26:11;;;;;;;0.38;0.10;;;18.70;99.90;;;;;;5058101;28;20067;-80
2023/07/31 12:28:40;;;;;;;0.50;0.13;;;18.80;99.90;;;;;;5041800;28;20089;-85
2023/07/31 12:31:06;;;;;;;1.08;0.20;;;18.80;99.90;;;;;;5058429;28;20048;-81
2023/07/31 12:33:36;;;;;;;0.63;0.10;;;18.70;99.90;;;;;;5058173;28;20381;-82
2023/07/31 12:36:11;;;;;;;2.60;0.20;;;18.70;99.90;;;;;;5031377;28;20048;-82
2023/07/31 12:38:37;;;;;;;2.15;0.28;;;18.50;99.90;;;;;;5056785;28;20041;-84
2023/07/31 12:41:03;;;;;;;1.77;0.10;;;18.40;99.90;;;;;;5037506;28;20060;-81
2023/07/31 12:43:30;;;;;;;1.23;0.10;;;;;;;;;;5044297;28;20052;-81
2023/07/31 12:45:56;;;;;;;0.45;0.15;;;18.30;99.90;;;;;;5063014;28;20048;-78
2023/07/31 12:48:22;;;;;;;1.88;0.30;;;18.30;99.90;;;;;;5065642;28;20056;-78
2023/07/31 12:50:48;;;;;;;3.78;0.35;;;15.10;99.90;;;;;;5050444;28;20056;-77